Time;durP1;ratioP1;P1;durP2;ratioP2;P2;SDS_P1;SDS_P2;PMS_P1;PMS_P2;Temp;Humidity;BMP_temperature;BMP_pressure;BME280_temperature;BME280_humidity;BME280_pressure;Samples;Min_cycle;Max_cycle;Signal;HPM_P1;HPM_P2
2021/08/07 00:01:37;;;;;;;3.60;3.30;;;21.70;49.60;;;;;;5088440;28;20267;-82
2021/08/07 00:04:07;;;;;;;4.07;3.15;;;21.60;49.60;;;;;;5053998;28;20665;-81
2021/08/07 00:06:33;;;;;;;3.50;3.20;;;21.60;49.50;;;;;;5088296;28;20182;-83
2021/08/07 00:08:59;;;;;;;3.55;3.25;;;21.70;49.60;;;;;;5053722;28;20221;-81
2021/08/07 00:11:29;;;;;;;3.30;3.00;;;21.70;49.60;;;;;;5036066;28;20189;-83
2021/08/07 00:13:55;;;;;;;3.55;3.25;;;21.70;49.50;;;;;;5104404;28;20234;-82
2021/08/07 00:16:22;;;;;;;3.45;3.15;;;21.70;49.60;;;;;;5053426;28;20631;-82
2021/08/07 00:18:49;;;;;;;3.72;3.42;;;21.70;49.50;;;;;;5104587;28;20636;-82
2021/08/07 00:21:21;;;;;;;3.28;3.00;;;21.70;49.60;;;;;;5104084;28;20283;-80
2021/08/07 00:23:51;;;;;;;3.40;3.10;;;21.70;49.60;;;;;;5087569;28;20217;-81
2021/08/07 00:26:22;;;;;;;3.30;3.00;;;21.70;49.60;;;;;;5104509;28;20182;-79
2021/08/07 00:28:49;;;;;;;3.20;2.95;;;21.60;49.50;;;;;;5018881;28;20253;-82
2021/08/07 00:31:16;;;;;;;3.67;3.38;;;21.70;49.50;;;;;;5104281;28;20203;-83
2021/08/07 00:33:47;;;;;;;3.30;3.00;;;21.60;49.50;;;;;;5104074;28;20215;-80
2021/08/07 00:36:14;;;;;;;3.25;2.95;;;21.70;49.60;;;;;;5087466;28;20189;-80
2021/08/07 00:38:41;;;;;;;3.35;3.05;;;21.70;49.60;;;;;;5103754;28;20239;-84
2021/08/07 00:41:07;;;;;;;3.50;3.20;;;21.60;49.50;;;;;;5104387;28;20182;-82
2021/08/07 00:43:34;;;;;;;3.53;3.22;;;21.70;49.50;;;;;;5069940;28;20249;-83
2021/08/07 00:46:01;;;;;;;3.38;3.08;;;21.70;49.60;;;;;;5103922;28;20261;-82
2021/08/07 00:48:28;;;;;;;3.47;3.13;;;21.70;49.60;;;;;;5086687;28;20186;-80
2021/08/07 00:50:55;;;;;;;3.67;3.38;;;21.70;49.60;;;;;;5104125;28;20254;-82
2021/08/07 00:53:24;;;;;;;3.40;3.10;;;21.60;49.60;;;;;;5053452;28;20565;-80
2021/08/07 00:55:51;;;;;;;3.08;2.88;;;21.70;49.70;;;;;;5104003;28;20266;-81
2021/08/07 00:58:21;;;;;;;3.20;2.90;;;21.60;49.60;;;;;;5035427;28;20605;-81
2021/08/07 01:00:47;;;;;;;3.38;3.08;;;21.70;49.60;;;;;;5104394;28;20221;-82
2021/08/07 01:03:34;;;;;;;3.45;3.15;;;21.60;49.60;;;;;;5035305;28;20266;-82
2021/08/07 01:06:17;;;;;;;3.38;3.08;;;21.60;49.70;;;;;;5035359;28;20605;-82
2021/08/07 01:08:48;;;;;;;3.30;3.00;;;21.60;49.70;;;;;;5100358;28;20182;-81
2021/08/07 01:11:20;;;;;;;3.55;3.25;;;21.60;49.70;;;;;;5052804;28;20158;-84
2021/08/07 01:13:53;;;;;;;3.30;3.00;;;21.60;49.70;;;;;;5053187;28;20166;-84
2021/08/07 01:16:24;;;;;;;3.47;3.17;;;21.60;49.70;;;;;;5103279;28;20182;-81
2021/08/07 01:18:54;;;;;;;3.28;2.97;;;21.60;49.70;;;;;;5035375;28;20158;-83
2021/08/07 01:21:26;;;;;;;3.72;3.42;;;21.70;49.80;;;;;;5103601;28;20177;-81
2021/08/07 01:24:08;;;;;;;3.13;2.90;;;21.60;49.70;;;;;;5086313;28;20228;-81
2021/08/07 01:27:06;;;;;;;3.50;3.20;;;21.60;49.70;;;;;;5068288;28;20649;-80
2021/08/07 01:29:37;;;;;;;3.95;3.53;;;21.60;49.70;;;;;;5034486;28;20150;-83
2021/08/07 01:32:09;;;;;;;3.53;3.22;;;21.60;49.70;;;;;;5086646;28;20586;-83
2021/08/07 01:34:38;;;;;;;3.30;3.00;;;21.60;49.70;;;;;;5103451;28;20174;-82
2021/08/07 01:37:05;;;;;;;3.55;3.25;;;21.60;49.80;;;;;;5086149;28;20182;-84
2021/08/07 01:39:33;;;;;;;3.42;3.13;;;21.70;49.80;;;;;;5086182;28;20178;-82
2021/08/07 01:42:00;;;;;;;3.50;3.20;;;21.70;49.80;;;;;;5103487;28;20515;-80
2021/08/07 01:44:30;;;;;;;3.17;2.97;;;21.60;49.80;;;;;;5103869;28;20182;-80
2021/08/07 01:47:02;;;;;;;3.53;3.22;;;21.60;49.80;;;;;;5086205;28;20190;-84
2021/08/07 01:49:37;;;;;;;3.50;3.20;;;21.60;49.80;;;;;;5085351;28;20213;-82
2021/08/07 01:52:12;;;;;;;3.58;3.28;;;21.60;49.80;;;;;;5067511;28;20578;-81
2021/08/07 01:54:41;;;;;;;3.45;3.15;;;21.60;49.80;;;;;;5085556;28;20174;-81
2021/08/07 01:57:12;;;;;;;3.70;3.40;;;21.60;49.80;;;;;;5102494;28;20648;-81
2021/08/07 01:59:39;;;;;;;3.70;3.40;;;21.60;49.80;;;;;;5086133;28;20182;-82
2021/08/07 02:02:13;;;;;;;3.60;3.30;;;21.70;49.80;;;;;;5102793;28;20197;-82
2021/08/07 02:04:43;;;;;;;3.63;3.33;;;21.60;49.80;;;;;;5085885;28;20186;-81
2021/08/07 02:07:10;;;;;;;3.65;3.35;;;21.60;49.80;;;;;;5086141;28;20273;-82
2021/08/07 02:09:38;;;;;;;3.50;3.20;;;21.60;49.80;;;;;;5102410;28;20222;-80
2021/08/07 02:12:05;;;;;;;3.40;3.10;;;21.60;49.80;;;;;;5086165;28;20173;-81
2021/08/07 02:14:40;;;;;;;3.47;3.17;;;21.60;49.90;;;;;;5034758;28;20551;-82
2021/08/07 02:17:05;;;;;;;3.53;3.22;;;21.60;49.80;;;;;;5068636;28;20197;-80
2021/08/07 02:19:32;;;;;;;3.33;3.03;;;21.60;49.90;;;;;;5034165;28;20150;-82
2021/08/07 02:21:58;;;;;;;3.50;3.20;;;21.60;49.90;;;;;;5034346;28;20179;-83
2021/08/07 02:24:25;;;;;;;3.40;3.10;;;21.60;49.90;;;;;;5051807;28;20158;-85
2021/08/07 02:26:53;;;;;;;3.35;3.05;;;21.60;49.90;;;;;;5051833;28;20242;-81
2021/08/07 02:29:21;;;;;;;3.42;3.13;;;21.60;49.90;;;;;;5033927;28;20150;-81
2021/08/07 02:31:47;;;;;;;3.40;3.10;;;21.60;49.90;;;;;;5034264;28;20166;-84
2021/08/07 02:34:15;;;;;;;3.47;3.17;;;21.60;49.90;;;;;;5034262;28;20173;-83
2021/08/07 02:36:41;;;;;;;3.78;3.28;;;21.60;49.90;;;;;;5103291;28;20265;-82
2021/08/07 02:39:06;;;;;;;3.30;3.00;;;21.60;49.90;;;;;;5051534;28;20182;-82
2021/08/07 02:41:33;;;;;;;3.20;3.00;;;21.60;49.90;;;;;;5054734;28;20150;-81
2021/08/07 02:44:00;;;;;;;3.72;3.40;;;21.60;49.90;;;;;;5072348;28;20274;-83
2021/08/07 02:46:27;;;;;;;3.47;3.17;;;21.60;50.00;;;;;;5054861;28;20161;-81
2021/08/07 02:48:54;;;;;;;3.70;3.40;;;21.60;50.00;;;;;;5106542;28;20203;-83
2021/08/07 02:51:25;;;;;;;3.40;3.10;;;21.60;50.00;;;;;;5106192;28;20272;-83
2021/08/07 02:53:52;;;;;;;3.30;3.00;;;21.60;50.00;;;;;;5106248;28;20217;-81
2021/08/07 02:56:26;;;;;;;3.55;3.25;;;21.60;50.00;;;;;;5106784;28;20178;-82
2021/08/07 02:58:55;;;;;;;3.47;3.17;;;21.60;50.00;;;;;;5106411;28;20178;-81
2021/08/07 03:01:22;;;;;;;3.42;3.13;;;21.60;50.00;;;;;;5089111;28;20190;-83
2021/08/07 03:03:48;;;;;;;3.45;3.15;;;21.60;50.60;;;;;;5054718;28;20190;-83
2021/08/07 03:06:18;;;;;;;3.50;3.20;;;21.50;49.90;;;;;;5036513;28;20268;-83
2021/08/07 03:08:43;;;;;;;3.47;3.17;;;21.60;50.00;;;;;;5072414;28;20637;-81
2021/08/07 03:11:10;;;;;;;3.75;3.45;;;21.60;50.00;;;;;;5036850;28;20257;-83
2021/08/07 03:13:36;;;;;;;3.42;3.13;;;21.60;50.00;;;;;;5054636;28;20158;-80
2021/08/07 03:16:07;;;;;;;3.40;3.10;;;21.60;50.70;;;;;;5054677;28;20159;-81
2021/08/07 03:18:33;;;;;;;3.10;2.90;;;21.60;50.00;;;;;;5088457;28;20233;-80
2021/08/07 03:21:04;;;;;;;3.47;3.17;;;21.60;50.00;;;;;;5036526;28;20663;-81
2021/08/07 03:23:34;;;;;;;3.92;3.63;;;21.60;50.00;;;;;;5106212;28;20613;-84
2021/08/07 03:26:04;;;;;;;3.35;3.05;;;21.60;50.00;;;;;;5105459;28;20197;-83
2021/08/07 03:28:31;;;;;;;3.35;3.05;;;21.60;50.10;;;;;;5105620;28;20672;-84
2021/08/07 03:30:58;;;;;;;3.38;3.08;;;21.60;50.10;;;;;;5054398;28;20237;-84
2021/08/07 03:33:24;;;;;;;3.58;3.28;;;21.60;50.00;;;;;;5054061;28;20158;-82
2021/08/07 03:35:50;;;;;;;3.03;2.75;;;21.60;50.10;;;;;;5054324;28;20551;-82
2021/08/07 03:38:23;;;;;;;3.45;3.15;;;21.60;50.10;;;;;;5054888;28;20166;-82
2021/08/07 03:40:53;;;;;;;3.38;3.08;;;21.60;50.10;;;;;;5105445;28;20186;-83
2021/08/07 03:43:22;;;;;;;3.53;3.22;;;21.60;50.10;;;;;;5088189;28;20724;-83
2021/08/07 03:45:53;;;;;;;3.35;3.05;;;21.60;50.10;;;;;;5054637;28;20154;-80
2021/08/07 03:48:20;;;;;;;3.50;3.20;;;21.60;50.10;;;;;;5105116;28;20217;-84
2021/08/07 03:50:46;;;;;;;3.45;3.15;;;21.60;50.10;;;;;;5054011;28;20157;-81
2021/08/07 03:53:16;;;;;;;3.85;3.47;;;21.60;50.20;;;;;;5053454;28;20155;-81
2021/08/07 03:55:42;;;;;;;3.20;2.90;;;21.60;50.20;;;;;;5088263;28;20174;-81
2021/08/07 03:58:08;;;;;;;3.50;3.20;;;21.60;50.10;;;;;;5036189;28;20690;-82
2021/08/07 04:00:39;;;;;;;3.15;2.95;;;21.50;50.10;;;;;;5053730;28;20298;-81
2021/08/07 04:03:09;;;;;;;3.50;3.20;;;21.60;50.10;;;;;;5104681;28;20228;-80
2021/08/07 04:05:35;;;;;;;3.40;3.10;;;21.50;50.10;;;;;;5104137;28;20186;-84
2021/08/07 04:08:04;;;;;;;3.40;3.10;;;21.50;50.20;;;;;;5035811;28;20158;-81
2021/08/07 04:10:30;;;;;;;3.30;3.00;;;21.50;50.20;;;;;;5036135;28;20225;-83
2021/08/07 04:13:00;;;;;;;3.30;3.00;;;21.60;50.20;;;;;;5036263;28;20166;-81
2021/08/07 04:15:30;;;;;;;3.38;3.08;;;21.50;50.10;;;;;;5019526;28;20209;-80
2021/08/07 04:17:57;;;;;;;3.60;3.30;;;21.60;50.10;;;;;;5104649;28;20254;-84
2021/08/07 04:20:25;;;;;;;3.30;3.00;;;21.60;50.20;;;;;;5035987;28;20181;-79
2021/08/07 04:22:51;;;;;;;3.35;3.05;;;21.60;50.10;;;;;;5053284;28;20198;-83
2021/08/07 04:25:17;;;;;;;3.53;3.22;;;21.60;50.20;;;;;;5053615;28;20195;-84
2021/08/07 04:27:43;;;;;;;3.40;3.10;;;21.60;50.20;;;;;;5052985;28;20162;-81
2021/08/07 04:30:10;;;;;;;3.40;3.10;;;21.50;50.20;;;;;;5052682;28;20170;-79
2021/08/07 04:32:36;;;;;;;3.35;3.05;;;21.60;50.20;;;;;;5052388;28;20164;-84
2021/08/07 04:35:02;;;;;;;3.47;3.17;;;21.60;50.20;;;;;;5035119;28;20605;-81
2021/08/07 04:37:28;;;;;;;3.75;3.33;;;21.60;50.20;;;;;;5052575;28;20173;-83
2021/08/07 04:39:54;;;;;;;3.47;3.17;;;21.60;50.20;;;;;;5052319;28;20159;-81
2021/08/07 04:42:20;;;;;;;3.65;3.33;;;21.60;50.10;;;;;;5034165;28;20159;-80
2021/08/07 04:44:47;;;;;;;3.58;3.28;;;21.60;50.20;;;;;;5051982;28;20195;-81
2021/08/07 04:47:12;;;;;;;3.70;3.40;;;21.60;50.10;;;;;;5034644;28;20632;-81
2021/08/07 04:49:38;;;;;;;3.42;3.13;;;21.60;50.10;;;;;;5018064;28;20158;-81
2021/08/07 04:52:04;;;;;;;3.47;3.17;;;21.60;50.10;;;;;;5034370;28;20158;-83
2021/08/07 04:54:31;;;;;;;3.35;3.05;;;21.60;50.10;;;;;;5051941;28;20674;-81
2021/08/07 04:56:57;;;;;;;3.58;3.28;;;21.50;50.10;;;;;;5034568;28;20165;-84
2021/08/07 04:59:27;;;;;;;3.25;2.95;;;21.60;50.20;;;;;;5052049;28;20218;-80
2021/08/07 05:01:57;;;;;;;3.30;3.00;;;21.50;50.90;;;;;;5017218;28;20253;-81
2021/08/07 05:04:26;;;;;;;3.28;2.97;;;21.60;50.30;;;;;;5102712;28;20218;-84
2021/08/07 05:06:53;;;;;;;3.28;2.97;;;21.60;50.20;;;;;;5069601;28;20636;-82
2021/08/07 05:09:18;;;;;;;3.40;3.10;;;21.60;50.20;;;;;;5052059;28;20249;-83
2021/08/07 05:11:45;;;;;;;3.28;2.97;;;21.50;50.20;;;;;;5052172;28;20169;-82
2021/08/07 05:14:15;;;;;;;3.55;3.25;;;21.60;50.20;;;;;;5034451;28;20304;-81
2021/08/07 05:16:46;;;;;;;3.40;3.10;;;21.60;50.30;;;;;;5103082;28;20190;-83
2021/08/07 05:19:16;;;;;;;3.33;3.03;;;21.60;50.30;;;;;;5103022;28;20205;-81
2021/08/07 05:21:47;;;;;;;3.45;3.15;;;21.60;50.30;;;;;;5102841;28;20284;-79
2021/08/07 05:24:16;;;;;;;3.55;3.25;;;21.60;50.30;;;;;;5085561;28;20297;-82
2021/08/07 05:26:46;;;;;;;3.30;3.00;;;21.60;50.30;;;;;;5103078;28;20260;-80
2021/08/07 05:29:15;;;;;;;3.42;3.13;;;21.60;50.30;;;;;;5102622;28;20182;-80
2021/08/07 05:31:46;;;;;;;3.67;3.30;;;21.60;50.40;;;;;;5085857;28;20182;-83
2021/08/07 05:34:15;;;;;;;3.30;3.00;;;21.50;50.40;;;;;;5102493;28;20174;-83
2021/08/07 05:36:46;;;;;;;3.10;2.90;;;21.60;50.40;;;;;;5102955;28;20185;-83
2021/08/07 05:39:15;;;;;;;3.35;3.05;;;21.50;50.40;;;;;;5103143;28;20182;-81
2021/08/07 05:41:44;;;;;;;3.55;3.25;;;21.50;50.40;;;;;;5001667;28;20221;-83
2021/08/07 05:44:13;;;;;;;3.58;3.28;;;21.50;50.40;;;;;;5105283;28;20218;-80
2021/08/07 05:46:43;;;;;;;3.78;3.40;;;21.60;50.40;;;;;;5088233;28;20710;-80
2021/08/07 05:49:14;;;;;;;3.58;3.28;;;21.50;50.30;;;;;;5105604;28;20641;-80
2021/08/07 05:51:42;;;;;;;3.33;3.03;;;21.50;50.30;;;;;;5089211;28;20178;-80
2021/08/07 05:54:11;;;;;;;3.45;3.15;;;21.50;50.40;;;;;;5088975;28;20182;-80
2021/08/07 05:56:39;;;;;;;3.50;3.20;;;21.60;50.40;;;;;;5104221;28;20197;-81
2021/08/07 05:59:07;;;;;;;3.45;3.10;;;21.60;50.40;;;;;;5104327;28;20204;-80
2021/08/07 06:01:38;;;;;;;3.30;3.00;;;21.60;50.40;;;;;;5088556;28;20663;-83
2021/08/07 06:04:06;;;;;;;3.47;3.15;;;21.60;50.40;;;;;;5087736;28;20594;-80
2021/08/07 06:06:34;;;;;;;3.40;3.10;;;21.60;50.40;;;;;;5087737;28;20278;-81
2021/08/07 06:09:00;;;;;;;3.15;2.88;;;21.60;50.40;;;;;;5104348;28;20227;-83
2021/08/07 06:11:27;;;;;;;2.92;2.72;;;21.60;50.50;;;;;;5036887;28;20163;-83
2021/08/07 06:13:54;;;;;;;3.30;3.00;;;21.50;50.60;;;;;;5087734;28;20186;-80
2021/08/07 06:16:23;;;;;;;3.22;2.92;;;21.50;50.60;;;;;;5022316;28;20162;-80
2021/08/07 06:18:53;;;;;;;3.30;3.00;;;21.50;50.60;;;;;;5108334;28;20181;-81
2021/08/07 06:21:22;;;;;;;3.53;3.22;;;21.50;50.50;;;;;;5109764;28;20648;-82
2021/08/07 06:23:50;;;;;;;3.50;3.20;;;21.50;50.60;;;;;;5091768;28;20692;-81
2021/08/07 06:26:19;;;;;;;3.60;3.30;;;21.50;50.80;;;;;;5023073;28;20277;-84
2021/08/07 06:28:48;;;;;;;4.03;3.63;;;21.50;51.10;;;;;;5109449;28;20205;-81
2021/08/07 06:31:17;;;;;;;3.72;3.42;;;21.50;51.90;;;;;;5091613;28;20273;-81
2021/08/07 06:33:46;;;;;;;5.00;3.63;;;21.50;52.20;;;;;;5091645;28;20182;-82
2021/08/07 06:36:14;;;;;;;3.60;3.30;;;21.40;53.00;;;;;;5108343;28;20186;-81
2021/08/07 06:38:45;;;;;;;3.70;3.40;;;21.40;52.40;;;;;;5108107;28;20653;-82
2021/08/07 06:41:13;;;;;;;4.00;3.63;;;21.40;52.70;;;;;;5108514;28;20189;-82
2021/08/07 06:43:43;;;;;;;5.20;3.60;;;21.40;53.00;;;;;;5108906;28;20218;-83
2021/08/07 06:46:11;;;;;;;4.20;3.80;;;21.40;53.00;;;;;;5109506;28;20217;-81
2021/08/07 06:48:39;;;;;;;3.50;3.20;;;21.40;53.30;;;;;;5109355;28;20189;-82
2021/08/07 06:51:06;;;;;;;5.78;4.10;;;21.40;53.30;;;;;;5108739;28;20211;-80
2021/08/07 06:53:32;;;;;;;4.40;4.00;;;21.40;53.60;;;;;;5057900;28;20185;-82
2021/08/07 06:55:58;;;;;;;4.22;3.83;;;21.40;53.60;;;;;;5056965;28;20150;-81
2021/08/07 06:58:25;;;;;;;4.55;3.70;;;21.40;53.30;;;;;;5057082;28;20165;-82
2021/08/07 07:00:51;;;;;;;4.30;3.90;;;21.40;53.40;;;;;;5039484;28;20166;-80
2021/08/07 07:03:17;;;;;;;6.60;4.25;;;21.50;53.80;;;;;;5040307;28;20553;-81
2021/08/07 07:05:46;;;;;;;4.47;4.07;;;21.40;53.80;;;;;;5057233;28;20665;-81
2021/08/07 07:08:15;;;;;;;4.10;3.75;;;21.40;53.70;;;;;;5108589;28;20193;-83
2021/08/07 07:10:47;;;;;;;4.50;4.10;;;21.40;53.80;;;;;;5107288;28;20394;-79
2021/08/07 07:13:15;;;;;;;4.03;3.63;;;21.40;54.00;;;;;;5107468;28;20207;-79
2021/08/07 07:15:46;;;;;;;4.65;3.67;;;21.40;53.80;;;;;;5091525;28;20205;-82
2021/08/07 07:18:15;;;;;;;4.57;3.75;;;21.50;53.70;;;;;;5091256;28;20297;-81
2021/08/07 07:20:45;;;;;;;3.92;3.47;;;21.40;53.30;;;;;;5024585;28;20184;-81
2021/08/07 07:23:14;;;;;;;3.85;3.53;;;21.50;52.30;;;;;;5110277;28;20264;-80
2021/08/07 07:25:43;;;;;;;4.13;3.70;;;21.50;52.70;;;;;;5109302;28;20189;-80
2021/08/07 07:28:11;;;;;;;4.40;4.00;;;21.50;53.10;;;;;;5020241;28;20210;-78
2021/08/07 07:30:39;;;;;;;3.72;3.42;;;21.50;53.10;;;;;;5089665;28;20182;-81
2021/08/07 07:33:06;;;;;;;4.20;3.63;;;21.50;52.90;;;;;;5108560;28;20188;-81
2021/08/07 07:35:34;;;;;;;3.70;3.40;;;21.50;52.60;;;;;;5022078;28;20201;-85
2021/08/07 07:38:01;;;;;;;3.67;3.38;;;21.50;52.60;;;;;;5074891;28;20593;-81
2021/08/07 07:40:27;;;;;;;4.00;3.70;;;21.50;52.60;;;;;;5091822;28;20193;-82
2021/08/07 07:42:52;;;;;;;4.10;3.70;;;21.50;53.10;;;;;;5039647;28;20559;-83
2021/08/07 07:45:20;;;;;;;5.28;3.67;;;21.50;53.20;;;;;;5057022;28;20618;-79
2021/08/07 07:47:52;;;;;;;4.40;4.00;;;21.50;53.30;;;;;;5057674;28;20233;-79
2021/08/07 07:50:25;;;;;;;7.97;3.63;;;21.50;53.40;;;;;;5023245;28;20186;-80
2021/08/07 07:52:52;;;;;;;4.70;3.90;;;21.50;53.70;;;;;;5108652;28;20497;-79
2021/08/07 07:55:19;;;;;;;4.30;3.90;;;21.60;53.80;;;;;;5108848;28;20203;-79
2021/08/07 07:57:45;;;;;;;4.10;3.70;;;21.50;53.80;;;;;;5022392;28;20602;-81
2021/08/07 08:00:12;;;;;;;5.28;3.90;;;21.50;54.10;;;;;;5057979;28;20177;-81
2021/08/07 08:02:39;;;;;;;5.18;4.35;;;21.50;54.30;;;;;;5057024;28;20186;-81
2021/08/07 08:05:05;;;;;;;5.40;3.97;;;21.50;55.00;;;;;;5057694;28;20605;-78
2021/08/07 08:07:32;;;;;;;9.25;4.15;;;21.50;54.40;;;;;;5056753;28;20214;-83
2021/08/07 08:09:59;;;;;;;6.72;4.28;;;21.50;54.50;;;;;;5038628;28;20258;-83
2021/08/07 08:12:24;;;;;;;4.32;3.97;;;21.60;54.50;;;;;;5058205;28;20165;-85
2021/08/07 08:14:50;;;;;;;6.47;4.45;;;21.60;54.60;;;;;;5056307;28;20155;-84
2021/08/07 08:17:17;;;;;;;5.60;4.55;;;21.60;54.60;;;;;;5038559;28;20609;-80
2021/08/07 08:19:42;;;;;;;6.78;4.13;;;21.60;54.50;;;;;;5038817;28;20151;-79
2021/08/07 08:22:08;;;;;;;7.25;4.25;;;21.60;54.50;;;;;;5039827;28;20202;-82
2021/08/07 08:24:34;;;;;;;6.57;4.13;;;21.60;54.70;;;;;;5038621;28;20193;-80
2021/08/07 08:27:02;;;;;;;6.00;4.38;;;21.60;54.90;;;;;;5038510;28;20158;-83
2021/08/07 08:29:27;;;;;;;8.55;4.28;;;21.60;54.80;;;;;;5003616;28;20185;-83
2021/08/07 08:31:53;;;;;;;5.35;4.18;;;21.60;55.40;;;;;;5036074;28;20158;-81
2021/08/07 08:34:19;;;;;;;6.80;4.18;;;21.60;55.30;;;;;;5020116;28;20162;-84
2021/08/07 08:36:48;;;;;;;9.52;4.50;;;21.50;55.30;;;;;;5038272;28;20214;-78
2021/08/07 08:39:17;;;;;;;6.95;4.30;;;21.60;55.20;;;;;;5037589;28;20666;-78
2021/08/07 08:41:42;;;;;;;4.75;4.20;;;21.50;55.30;;;;;;5036693;28;20154;-81
2021/08/07 08:44:08;;;;;;;7.93;4.78;;;21.50;55.50;;;;;;5036552;28;20705;-78
2021/08/07 08:46:35;;;;;;;6.05;4.40;;;21.60;55.40;;;;;;5020605;28;20569;-80
2021/08/07 08:49:01;;;;;;;4.90;4.30;;;21.60;55.50;;;;;;5038532;28;20210;-79
2021/08/07 08:51:30;;;;;;;6.47;4.40;;;21.50;55.70;;;;;;5037702;28;20245;-82
2021/08/07 08:53:56;;;;;;;5.20;4.70;;;21.50;56.00;;;;;;5037127;28;20237;-78
2021/08/07 08:56:22;;;;;;;5.13;4.30;;;21.50;56.20;;;;;;5039298;28;20172;-80
2021/08/07 08:58:51;;;;;;;7.10;4.50;;;21.50;56.40;;;;;;5037852;28;20603;-78
2021/08/07 09:01:21;;;;;;;5.32;4.82;;;21.50;56.30;;;;;;5108094;28;20216;-82
2021/08/07 09:03:50;;;;;;;5.45;4.57;;;21.50;56.60;;;;;;5071597;28;20265;-80
2021/08/07 09:06:19;;;;;;;6.40;4.97;;;21.60;56.50;;;;;;5107232;28;20261;-78
2021/08/07 09:09:01;;;;;;;5.95;4.30;;;21.60;56.40;;;;;;5092190;28;20189;-81
2021/08/07 09:11:28;;;;;;;5.60;4.53;;;21.60;56.60;;;;;;5026596;28;20197;-78
2021/08/07 09:14:17;;;;;;;5.03;4.50;;;21.70;56.90;;;;;;5023998;28;20176;-79
2021/08/07 09:17:09;;;;;;;7.15;4.60;;;21.50;56.90;;;;;;5024439;28;20243;-80
2021/08/07 09:19:53;;;;;;;5.97;4.60;;;21.60;56.90;;;;;;5053221;28;20192;-81
2021/08/07 09:22:28;;;;;;;7.55;4.65;;;21.60;57.50;;;;;;5007481;28;20257;-81
2021/08/07 09:25:11;;;;;;;5.65;4.30;;;21.60;57.20;;;;;;5006344;28;20212;-81
2021/08/07 09:27:43;;;;;;;7.28;4.70;;;21.60;57.00;;;;;;5020932;28;20230;-81
2021/08/07 09:30:19;;;;;;;5.43;4.78;;;21.70;57.10;;;;;;5023132;28;20469;-79
2021/08/07 09:32:50;;;;;;;7.35;4.85;;;21.70;57.00;;;;;;5053963;28;20165;-81
2021/08/07 09:35:21;;;;;;;6.43;5.00;;;21.80;57.20;;;;;;5053173;28;20191;-79
2021/08/07 09:38:09;;;;;;;6.25;5.65;;;21.80;57.40;;;;;;5036604;28;20170;-79
2021/08/07 09:40:43;;;;;;;8.02;5.95;;;21.70;57.30;;;;;;5076640;28;20704;-80
2021/08/07 09:43:12;;;;;;;8.88;6.45;;;21.80;57.70;;;;;;5088960;28;20265;-82
2021/08/07 09:45:41;;;;;;;10.48;6.60;;;21.80;58.10;;;;;;5021266;28;20269;-81
2021/08/07 09:48:12;;;;;;;10.48;6.93;;;21.80;58.10;;;;;;5006411;28;20190;-78
2021/08/07 09:50:41;;;;;;;9.27;6.85;;;21.80;58.20;;;;;;5075769;28;20189;-79
2021/08/07 09:53:20;;;;;;;13.90;10.45;;;21.80;58.50;;;;;;5110373;28;20193;-79
2021/08/07 09:56:02;;;;;;;9.68;7.63;;;21.80;58.80;;;;;;5076563;28;20624;-80
2021/08/07 09:58:29;;;;;;;16.15;13.88;;;21.80;58.50;;;;;;5058255;28;20170;-80
2021/08/07 10:00:59;;;;;;;12.10;9.95;;;21.80;59.30;;;;;;5023581;28;20207;-79
2021/08/07 10:03:28;;;;;;;13.15;10.20;;;21.80;59.20;;;;;;5021832;28;20221;-79
2021/08/07 10:05:54;;;;;;;10.68;9.10;;;21.80;59.40;;;;;;5109320;27;20154;-79
2021/08/07 10:08:20;;;;;;;16.13;12.00;;;21.80;59.50;;;;;;5042884;28;20185;-78
2021/08/07 10:11:08;;;;;;;19.33;14.25;;;21.80;60.50;;;;;;5095310;28;20663;-78
2021/08/07 10:13:40;;;;;;;24.80;13.85;;;21.80;61.50;;;;;;5033590;28;20621;-78
2021/08/07 10:16:07;;;;;;;16.10;11.20;;;21.70;61.40;;;;;;5057178;28;20178;-80
2021/08/07 10:18:33;;;;;;;17.20;12.93;;;21.80;61.10;;;;;;5077039;28;20182;-77
2021/08/07 10:21:02;;;;;;;25.80;17.45;;;21.70;62.30;;;;;;5110660;28;20177;-78
2021/08/07 10:23:28;;;;;;;23.38;18.17;;;21.70;63.20;;;;;;5022190;28;20631;-80
2021/08/07 10:25:56;;;;;;;33.05;25.13;;;21.80;63.70;;;;;;5108083;27;20174;-78
2021/08/07 10:28:26;;;;;;;28.13;19.25;;;21.80;64.20;;;;;;5092386;28;20173;-79
2021/08/07 10:30:52;;;;;;;40.42;27.23;;;21.80;63.30;;;;;;5038029;28;20162;-78
2021/08/07 10:33:19;;;;;;;16.23;9.25;;;21.80;64.10;;;;;;5021457;28;20173;-83
2021/08/07 10:35:48;;;;;;;30.73;21.20;;;21.80;61.50;;;;;;5039769;28;20151;-79
2021/08/07 10:38:18;;;;;;;37.47;23.17;;;21.80;62.70;;;;;;5071705;28;20716;-78
2021/08/07 10:40:46;;;;;;;22.30;13.73;;;21.70;64.30;;;;;;5088209;28;20186;-80
2021/08/07 10:43:15;;;;;;;20.92;13.50;;;21.80;63.40;;;;;;5070260;28;20216;-78
2021/08/07 10:45:44;;;;;;;26.17;16.15;;;21.80;63.20;;;;;;5087983;28;20189;-82
2021/08/07 10:48:40;;;;;;;12.38;9.38;;;21.80;63.70;;;;;;5053575;28;20190;-82
2021/08/07 10:51:32;;;;;;;20.15;13.88;;;21.80;62.70;;;;;;5036473;28;20178;-78
2021/08/07 10:54:21;;;;;;;18.45;12.98;;;21.80;63.60;;;;;;5035167;28;20155;-82
2021/08/07 10:56:46;;;;;;;32.50;18.92;;;21.70;64.10;;;;;;5022511;28;20265;-80
2021/08/07 10:59:18;;;;;;;18.20;11.55;;;21.80;66.00;;;;;;5055562;28;20197;-82
2021/08/07 11:01:45;;;;;;;21.27;10.95;;;21.70;64.10;;;;;;5038461;28;20193;-77
2021/08/07 11:04:22;;;;;;;13.85;10.13;;;21.80;64.10;;;;;;5103817;27;20182;-80
2021/08/07 11:06:55;;;;;;;13.30;9.20;;;21.70;63.90;;;;;;5056000;28;20338;-81
2021/08/07 11:09:41;;;;;;;12.23;9.85;;;21.70;64.40;;;;;;5101454;28;20265;-80
2021/08/07 11:12:15;;;;;;;17.00;9.52;;;21.60;64.30;;;;;;5051883;28;20265;-80
2021/08/07 11:14:47;;;;;;;15.60;10.27;;;21.70;65.00;;;;;;5051820;28;20168;-78
2021/08/07 11:17:32;;;;;;;15.70;9.45;;;21.60;65.00;;;;;;5033388;28;20170;-83
2021/08/07 11:20:14;;;;;;;12.07;9.88;;;21.70;65.20;;;;;;5033445;28;20174;-81
2021/08/07 11:23:04;;;;;;;15.55;10.18;;;21.70;65.80;;;;;;5054078;28;20217;-80
2021/08/07 11:25:29;;;;;;;14.07;10.15;;;21.70;66.50;;;;;;5107729;27;20176;-79
2021/08/07 11:28:03;;;;;;;16.58;12.13;;;21.70;65.70;;;;;;5088613;28;20190;-80
2021/08/07 11:30:44;;;;;;;31.08;16.98;;;21.70;66.00;;;;;;5034791;28;20157;-81
2021/08/07 11:33:19;;;;;;;31.02;17.50;;;21.80;66.90;;;;;;5018575;28;20182;-80
2021/08/07 11:36:03;;;;;;;30.60;18.88;;;21.80;66.80;;;;;;5034691;28;20207;-79
2021/08/07 11:38:29;;;;;;;30.02;17.85;;;21.80;67.20;;;;;;5032743;28;20162;-80
2021/08/07 11:41:10;;;;;;;34.22;18.50;;;21.80;67.50;;;;;;5032818;28;20143;-80
2021/08/07 11:43:40;;;;;;;36.22;22.60;;;21.80;66.80;;;;;;5053632;28;20330;-80
2021/08/07 11:46:11;;;;;;;32.90;21.27;;;21.80;67.40;;;;;;5018669;28;20613;-81
2021/08/07 11:48:41;;;;;;;35.00;20.98;;;21.80;67.60;;;;;;5052450;28;20593;-81
2021/08/07 11:51:09;;;;;;;34.42;20.75;;;21.80;67.30;;;;;;5037779;28;20222;-78
2021/08/07 11:53:40;;;;;;;35.58;22.95;;;21.80;67.30;;;;;;5037343;28;20174;-80
2021/08/07 11:56:12;;;;;;;44.05;27.13;;;21.80;67.20;;;;;;5037044;28;20166;-78
2021/08/07 11:58:59;;;;;;;46.50;29.20;;;21.90;67.70;;;;;;5070548;28;20193;-82
2021/08/07 12:01:32;;;;;;;47.42;31.30;;;21.90;67.70;;;;;;5069951;28;20178;-83
2021/08/07 12:04:00;;;;;;;53.08;32.35;;;21.90;67.60;;;;;;5072691;28;20241;-78
2021/08/07 12:06:31;;;;;;;39.10;25.27;;;21.90;67.40;;;;;;5056252;28;20222;-81
2021/08/07 12:08:58;;;;;;;38.72;23.95;;;21.90;67.50;;;;;;5089745;28;20189;-79
2021/08/07 12:11:25;;;;;;;37.00;21.38;;;21.90;67.70;;;;;;5038434;28;20162;-79
2021/08/07 12:13:56;;;;;;;40.08;25.77;;;21.90;68.40;;;;;;5073993;27;20283;-80
2021/08/07 12:16:28;;;;;;;41.35;25.00;;;21.80;68.10;;;;;;5091347;28;20630;-79
2021/08/07 12:18:59;;;;;;;33.60;20.40;;;21.80;68.10;;;;;;5073666;28;20197;-83
2021/08/07 12:21:34;;;;;;;24.67;17.15;;;21.80;68.30;;;;;;5056245;28;20189;-79
2021/08/07 12:24:07;;;;;;;36.03;23.33;;;21.90;68.50;;;;;;5088115;28;20288;-81
2021/08/07 12:26:41;;;;;;;36.45;21.85;;;21.80;68.60;;;;;;5070395;28;20276;-78
2021/08/07 12:29:11;;;;;;;35.25;21.55;;;21.80;68.60;;;;;;5054577;28;20545;-80
2021/08/07 12:31:40;;;;;;;28.27;18.23;;;21.80;68.50;;;;;;5021249;28;20256;-78
2021/08/07 12:34:33;;;;;;;35.03;20.45;;;21.80;69.00;;;;;;5036895;28;20166;-78
2021/08/07 12:37:02;;;;;;;24.77;16.98;;;21.80;69.00;;;;;;5053719;28;20229;-80
2021/08/07 12:39:36;;;;;;;32.67;20.38;;;21.90;68.60;;;;;;5036324;28;20232;-83
2021/08/07 12:42:03;;;;;;;35.20;21.85;;;21.90;68.30;;;;;;5054128;28;20185;-83
2021/08/07 12:44:29;;;;;;;32.17;19.67;;;21.90;68.60;;;;;;5018305;28;20547;-81
2021/08/07 12:46:56;;;;;;;30.20;19.58;;;21.90;68.70;;;;;;5020935;28;20222;-79
2021/08/07 12:49:40;;;;;;;30.10;19.10;;;21.90;68.70;;;;;;5024002;28;20604;-84
2021/08/07 12:52:14;;;;;;;33.58;20.17;;;21.90;69.80;;;;;;5019198;28;20162;-79
2021/08/07 12:54:41;;;;;;;28.80;19.20;;;21.80;70.30;;;;;;5054746;28;20185;-80
2021/08/07 12:57:20;;;;;;;27.85;17.60;;;21.80;70.10;;;;;;5020879;28;20165;-84